Tropical Cyclones
[Index]
Main Index Home Page Stock Weather Photos Extreme Storms Discussion Storm News and Storm Chasing Reports Tropical Cyclones / Hurricanes / Typhoons Weather Data and Links Wild Fires / Bushfires Weather Observation Techniques Weather Picture Catalogue Tornado Pictures and Reports Stock Video Footage and DVDs for sale
Season 2015-2016 Tropical Cyclone STAN Track Map
Season 2015-2016 Summaries: [BoM-AU] [JTWC-AU] [JTWC-SIO] [JTWC-SPAC] [JTWC-SH]
<<- Previous TC | BoM 2015-2016 Season | Next TC ->>

click for intensity scale information  Lat/long Grid: Show Hide

 Date Labels: Show Hide

Bureau of Meteorology Tropical Cyclone Data

Name: STAN
Number: 990 / 201516_08

27 Jan 2016 00:00 UTC to 01 Feb 2016 00:00 UTC

    date/time    lat    long    hPa   cat  kts
2016-01-27 00   13.0   118.5   1005         20          
2016-01-27 06   13.3   118.5   1005         20          
2016-01-27 10   13.8   118.4                            
2016-01-27 12   14.0   118.4   1005         20          
2016-01-27 18   14.5   118.4   1003         25          
2016-01-28 00   15.4   118.2   1003         25          
2016-01-28 05   16.3   117.6                            
2016-01-28 06   16.3   117.6   1000         25          
2016-01-28 12   16.5   117.8    998         25          
2016-01-28 16   16.7   117.9                            
2016-01-28 18   16.8   117.9    998         30          
2016-01-29 00   17.2   118.0    996         30          
2016-01-29 04   17.5   118.1                            
2016-01-29 06   17.6   118.1    990    1    35          
2016-01-29 12   17.7   118.2    990    1    40          
2016-01-29 17   17.9   118.3                            
2016-01-29 18   17.9   118.3    987    1    45          
2016-01-30 00   18.0   118.6    984    2    50          
2016-01-30 06   18.7   118.9    980    2    55          
2016-01-30 12   19.2   119.3    980    2    50          
2016-01-30 18   19.9   119.8    980    2    50          
2016-01-31 00   21.3   120.0    987    1    40          
2016-01-31 06   22.5   120.2    993    1    30          
2016-01-31 12   24.3   122.1    999         20          
2016-01-31 18   26.2   124.1    998         20          
2016-02-01 00   28.0   126.0    997         20          
Winds are 10-min average.

Tropical cyclone tracks developed by Michael Bath using data from the Bureau of Meteorology and Google Maps.


[Australian Severe Weather index] [Copyright Notice] [Email Contacts] [Search This Site] [Privacy Policy]
Document: tropical_cyclone_stan.htm Updated: 29 June 2017